createdAt,value
2019-01-15T00:01:59.635Z,3.39
2019-01-15T00:04:30.880Z,3.38
2019-01-15T00:07:02.129Z,3.28
2019-01-15T00:09:33.316Z,3.33
2019-01-15T00:12:07.954Z,3.34
2019-01-15T00:14:37.452Z,3.33
2019-01-15T00:17:08.617Z,3.31
2019-01-15T00:19:39.832Z,3.28
2019-01-15T00:22:11.032Z,3.27
2019-01-15T00:24:42.206Z,3.23
2019-01-15T00:27:13.388Z,3.22
2019-01-15T00:29:44.687Z,3.22
2019-01-15T00:32:15.912Z,3.20
2019-01-15T00:34:47.253Z,3.20
2019-01-15T00:37:18.460Z,3.18
2019-01-15T00:39:49.602Z,3.13
2019-01-15T00:42:20.805Z,3.18
2019-01-15T00:44:52.011Z,3.17
2019-01-15T00:47:23.311Z,3.16
2019-01-15T00:49:54.468Z,3.16
2019-01-15T00:52:25.656Z,3.18
2019-01-15T00:54:56.826Z,3.19
2019-01-15T00:57:28.119Z,3.17
2019-01-15T00:59:59.282Z,3.18
2019-01-15T01:02:30.473Z,3.20
2019-01-15T01:05:01.641Z,3.19
2019-01-15T01:07:32.908Z,3.20
2019-01-15T01:10:04.838Z,3.20
2019-01-15T01:12:36.054Z,3.19
2019-01-15T01:15:08.784Z,3.19
2019-01-15T01:17:41.027Z,3.19
2019-01-15T01:20:15.832Z,3.18
2019-01-15T01:22:47.035Z,3.18
2019-01-15T01:25:18.250Z,3.20
2019-01-15T01:27:49.496Z,3.20
2019-01-15T01:30:22.539Z,3.21
2019-01-15T01:32:53.780Z,3.23
2019-01-15T01:35:24.953Z,3.25
2019-01-15T01:37:56.143Z,3.25
2019-01-15T01:40:27.431Z,3.27
2019-01-15T01:42:58.557Z,3.21
2019-01-15T01:45:29.872Z,3.29
2019-01-15T01:48:01.050Z,3.31
2019-01-15T01:50:32.320Z,3.31
2019-01-15T01:53:03.503Z,3.36
2019-01-15T01:55:34.676Z,3.36
2019-01-15T01:58:05.866Z,3.38
2019-01-15T02:00:37.030Z,3.38
2019-01-15T02:03:08.330Z,3.46
2019-01-15T02:05:39.551Z,3.46
2019-01-15T02:08:10.865Z,3.49
2019-01-15T02:10:42.083Z,3.49
2019-01-15T02:13:13.347Z,3.55
2019-01-15T02:15:44.552Z,3.55
2019-01-15T02:18:15.812Z,3.58
2019-01-15T02:20:47.025Z,3.63
2019-01-15T02:23:18.219Z,3.63
2019-01-15T02:25:49.425Z,3.66
2019-01-15T02:28:20.581Z,3.71
2019-01-15T02:30:51.862Z,3.71
2019-01-15T02:33:23.061Z,3.73
2019-01-15T02:35:54.274Z,3.76
2019-01-15T02:38:25.481Z,3.76
2019-01-15T02:40:56.682Z,3.75
2019-01-15T02:43:27.842Z,3.76
2019-01-15T02:45:59.002Z,3.76
2019-01-15T02:48:30.204Z,3.75
2019-01-15T02:51:01.397Z,3.76
2019-01-15T02:53:32.673Z,3.74
2019-01-15T02:56:04.054Z,3.78
2019-01-15T02:58:35.859Z,3.79
2019-01-15T03:01:07.148Z,3.79
2019-01-15T03:03:38.360Z,3.79
2019-01-15T03:06:09.536Z,3.79
2019-01-15T03:08:40.798Z,3.80
2019-01-15T03:11:12.085Z,3.82
2019-01-15T03:13:43.535Z,3.83
2019-01-15T03:16:14.788Z,3.84
2019-01-15T03:18:47.692Z,3.86
2019-01-15T03:21:19.010Z,3.84
2019-01-15T03:23:50.215Z,3.84
2019-01-15T03:26:21.356Z,3.85
2019-01-15T03:28:52.585Z,3.84
2019-01-15T03:31:23.910Z,3.85
2019-01-15T03:33:55.095Z,3.86
2019-01-15T03:36:26.366Z,3.86
2019-01-15T03:38:57.630Z,3.77
2019-01-15T03:41:28.833Z,3.84
2019-01-15T03:44:00.114Z,3.89
2019-01-15T03:46:31.321Z,3.88
2019-01-15T03:49:02.459Z,3.88
2019-01-15T03:51:33.712Z,3.86
2019-01-15T03:54:04.880Z,3.86
2019-01-15T03:56:36.078Z,3.86
2019-01-15T03:59:07.306Z,3.85
2019-01-15T04:01:38.440Z,3.83
2019-01-15T04:04:09.661Z,3.85
2019-01-15T04:06:40.829Z,3.84
2019-01-15T04:09:12.041Z,3.83
2019-01-15T04:11:43.186Z,3.83
2019-01-15T04:14:14.377Z,3.80
2019-01-15T04:16:45.582Z,3.77
2019-01-15T04:19:16.748Z,3.77
2019-01-15T04:21:47.967Z,3.77
2019-01-15T04:24:19.136Z,3.75
2019-01-15T04:26:50.418Z,3.74
2019-01-15T04:29:21.632Z,3.74
2019-01-15T04:31:52.800Z,3.74
2019-01-15T04:34:24.069Z,3.75
2019-01-15T04:36:55.284Z,3.75
2019-01-15T04:39:26.553Z,3.75
2019-01-15T04:41:57.718Z,3.75
2019-01-15T04:44:28.928Z,3.69
2019-01-15T04:47:00.155Z,3.70
2019-01-15T04:49:31.320Z,3.71
2019-01-15T04:52:02.511Z,3.68
2019-01-15T04:54:33.773Z,3.72
2019-01-15T04:57:05.319Z,3.74
2019-01-15T04:59:37.102Z,3.73
2019-01-15T05:02:08.300Z,3.73
2019-01-15T05:04:39.496Z,3.72
2019-01-15T05:07:10.698Z,3.74
2019-01-15T05:09:41.889Z,3.78
2019-01-15T05:12:13.079Z,3.78
2019-01-15T05:14:44.317Z,3.75
2019-01-15T05:17:15.695Z,3.78
2019-01-15T05:19:46.962Z,3.80
2019-01-15T05:22:18.121Z,3.82
2019-01-15T05:24:49.325Z,3.80
2019-01-15T05:27:20.794Z,3.81
2019-01-15T05:29:52.075Z,3.80
2019-01-15T05:32:23.305Z,3.80
2019-01-15T05:34:54.532Z,3.77
2019-01-15T05:37:25.796Z,3.77
2019-01-15T05:39:56.936Z,3.75
2019-01-15T05:42:28.171Z,3.68
2019-01-15T05:45:00.052Z,3.68
2019-01-15T05:47:31.723Z,3.69
2019-01-15T05:50:02.968Z,3.66
2019-01-15T05:52:34.170Z,3.58
2019-01-15T05:55:05.923Z,3.60
2019-01-15T05:57:37.118Z,3.55
2019-01-15T06:00:09.061Z,3.60
2019-01-15T06:02:40.186Z,3.56
2019-01-15T06:05:11.654Z,3.47
2019-01-15T06:07:43.172Z,3.47
2019-01-15T06:10:14.391Z,3.49
2019-01-15T06:12:45.583Z,3.47
2019-01-15T06:15:16.946Z,3.45
2019-01-15T06:17:48.142Z,3.41
2019-01-15T06:20:19.515Z,3.40
2019-01-15T06:22:50.659Z,3.37
2019-01-15T06:25:22.010Z,3.37
2019-01-15T06:27:53.176Z,3.37
2019-01-15T06:30:24.480Z,3.34
2019-01-15T06:32:55.624Z,3.34
2019-01-15T06:35:26.831Z,3.33
2019-01-15T06:37:59.079Z,3.33
2019-01-15T06:40:30.238Z,3.23
2019-01-15T06:43:01.509Z,3.29
2019-01-15T06:45:32.843Z,3.22
2019-01-15T06:48:04.206Z,3.22
2019-01-15T06:50:35.349Z,3.24
2019-01-15T06:53:06.587Z,3.24
2019-01-15T06:55:37.672Z,3.24
2019-01-15T06:58:08.949Z,3.22
2019-01-15T07:00:40.103Z,3.21
2019-01-15T07:03:11.281Z,3.19
2019-01-15T07:05:42.601Z,3.19
2019-01-15T07:08:13.761Z,3.17
2019-01-15T07:10:44.938Z,3.12
2019-01-15T07:13:16.190Z,3.12
2019-01-15T07:15:47.589Z,3.12
2019-01-15T07:18:18.786Z,3.17
2019-01-15T07:20:50.046Z,3.18
2019-01-15T07:23:21.338Z,3.18
2019-01-15T07:25:53.682Z,3.15
2019-01-15T07:28:24.866Z,3.09
2019-01-15T07:30:58.668Z,3.09
2019-01-15T07:33:31.221Z,3.15
2019-01-15T07:36:02.407Z,3.15
2019-01-15T07:38:33.570Z,3.17
2019-01-15T07:41:04.724Z,3.17
2019-01-15T07:43:35.901Z,3.18
2019-01-15T07:46:07.110Z,3.21
2019-01-15T07:48:38.315Z,3.29
2019-01-15T07:51:09.482Z,3.29
2019-01-15T07:53:40.700Z,3.32
2019-01-15T07:56:11.991Z,3.32
2019-01-15T07:58:43.142Z,3.35
2019-01-15T08:01:15.590Z,3.38
2019-01-15T08:03:46.823Z,3.48
2019-01-15T08:06:17.996Z,3.48
2019-01-15T08:08:49.153Z,3.52
2019-01-15T08:11:20.402Z,3.60
2019-01-15T08:13:51.549Z,3.65
2019-01-15T08:16:22.716Z,3.65
2019-01-15T08:18:54.223Z,3.70
2019-01-15T08:21:25.402Z,3.76
2019-01-15T08:23:56.615Z,3.76
2019-01-15T08:26:27.767Z,3.78
2019-01-15T08:28:59.059Z,3.82
2019-01-15T08:31:30.390Z,3.84
2019-01-15T08:34:01.557Z,3.87
2019-01-15T08:36:32.774Z,3.85
2019-01-15T08:39:05.592Z,3.83
2019-01-15T08:41:37.091Z,3.83
2019-01-15T08:44:08.289Z,3.81
2019-01-15T08:46:39.455Z,3.77
2019-01-15T08:49:10.618Z,3.75
2019-01-15T08:51:43.280Z,3.68
2019-01-15T08:54:15.144Z,3.68
2019-01-15T08:56:46.331Z,3.66
2019-01-15T08:59:17.498Z,3.65
2019-01-15T09:01:48.691Z,3.64
2019-01-15T09:04:19.863Z,3.62
2019-01-15T09:06:51.043Z,3.59
2019-01-15T09:09:22.254Z,3.59
2019-01-15T09:11:53.397Z,3.64
2019-01-15T09:14:26.960Z,3.59
2019-01-15T09:16:58.659Z,3.70
2019-01-15T09:19:29.816Z,3.71
2019-01-15T09:22:01.040Z,3.73
2019-01-15T09:24:32.356Z,3.75
2019-01-15T09:27:04.125Z,3.77
2019-01-15T09:29:35.324Z,3.84
2019-01-15T09:32:06.506Z,3.92
2019-01-15T09:34:37.710Z,3.97
2019-01-15T09:37:10.514Z,4.00
2019-01-15T09:39:41.876Z,4.04
2019-01-15T09:42:13.196Z,4.08
2019-01-15T09:44:44.678Z,4.14
2019-01-15T09:47:17.124Z,4.20
2019-01-15T09:49:48.384Z,4.23
2019-01-15T09:52:20.601Z,4.28
2019-01-15T09:54:52.061Z,4.31
2019-01-15T09:57:23.288Z,4.36
2019-01-15T09:59:54.460Z,4.39
2019-01-15T10:02:25.673Z,4.43
2019-01-15T10:04:56.906Z,4.46
2019-01-15T10:07:28.087Z,4.48
2019-01-15T10:09:59.234Z,4.51
2019-01-15T10:12:30.361Z,4.55
2019-01-15T10:15:01.552Z,4.53
2019-01-15T10:17:32.671Z,4.58
2019-01-15T10:20:04.606Z,4.59
2019-01-15T10:22:35.768Z,4.62
2019-01-15T10:25:08.667Z,4.67
2019-01-15T10:27:41.253Z,4.73
2019-01-15T10:30:18.204Z,4.76
2019-01-15T10:33:20.803Z,4.79
2019-01-15T10:35:54.237Z,4.79
2019-01-15T10:38:26.787Z,4.78
2019-01-15T10:40:58.674Z,4.78
2019-01-15T10:43:31.489Z,4.76
2019-01-15T10:46:03.808Z,4.73
2019-01-15T10:48:35.080Z,4.72
2019-01-15T10:51:06.327Z,4.70
2019-01-15T10:53:37.477Z,4.69
2019-01-15T10:56:08.691Z,4.63
2019-01-15T10:58:39.931Z,4.62
2019-01-15T11:01:11.101Z,4.61
2019-01-15T11:03:42.363Z,4.58
2019-01-15T11:06:13.643Z,4.56
2019-01-15T11:08:44.813Z,4.54
2019-01-15T11:11:17.072Z,4.50
2019-01-15T11:13:48.184Z,4.48
2019-01-15T11:16:20.136Z,4.48
2019-01-15T11:18:51.331Z,4.50
2019-01-15T11:21:22.532Z,4.50
2019-01-15T11:23:53.679Z,4.54
2019-01-15T11:26:24.866Z,4.55
2019-01-15T11:28:56.009Z,4.52
2019-01-15T11:31:27.161Z,4.59
2019-01-15T11:33:58.399Z,4.64
2019-01-15T11:36:29.563Z,4.69
2019-01-15T11:39:00.797Z,4.73
2019-01-15T11:41:32.782Z,4.76
2019-01-15T11:44:03.961Z,4.80
2019-01-15T11:46:36.066Z,4.84
2019-01-15T11:49:07.330Z,4.87
2019-01-15T11:51:38.480Z,4.90
2019-01-15T11:54:09.676Z,4.96
2019-01-15T11:56:41.058Z,5.00
2019-01-15T11:59:12.571Z,5.03
2019-01-15T12:02:03.855Z,5.08
2019-01-15T12:05:12.699Z,5.11
2019-01-15T12:08:06.031Z,5.16
2019-01-15T12:11:11.647Z,5.21
2019-01-15T12:14:00.480Z,5.27
2019-01-15T12:16:50.704Z,5.30
2019-01-15T12:19:33.897Z,5.32
2019-01-15T12:22:23.365Z,5.33
2019-01-15T12:25:14.289Z,5.36
2019-01-15T12:27:53.685Z,5.39
2019-01-15T12:30:51.188Z,5.42
2019-01-15T12:33:47.312Z,5.45
2019-01-15T12:36:27.404Z,5.49
2019-01-15T12:39:33.165Z,5.52
2019-01-15T12:42:26.612Z,5.55
2019-01-15T12:45:18.418Z,5.59
2019-01-15T12:48:06.877Z,5.61
2019-01-15T12:50:55.780Z,5.65
2019-01-15T12:53:44.716Z,5.68
2019-01-15T12:56:37.781Z,5.68
2019-01-15T12:59:27.276Z,5.74
2019-01-15T13:02:20.336Z,5.74
2019-01-15T13:05:10.121Z,5.77
2019-01-15T13:07:58.877Z,5.80
2019-01-15T13:10:49.018Z,5.81
2019-01-15T13:13:38.080Z,5.83
2019-01-15T13:16:37.144Z,5.87
2019-01-15T13:19:30.151Z,5.89
2019-01-15T13:22:19.244Z,5.91
2019-01-15T13:25:12.527Z,5.92
2019-01-15T13:28:01.484Z,5.94
2019-01-15T13:30:50.557Z,5.94
2019-01-15T13:33:56.062Z,5.96
2019-01-15T13:36:40.557Z,5.97
2019-01-15T13:39:29.373Z,5.97
2019-01-15T13:42:26.357Z,5.95
2019-01-15T13:45:19.340Z,5.96
2019-01-15T13:48:00.204Z,5.95
2019-01-15T13:50:54.377Z,5.97
2019-01-15T13:53:45.176Z,5.98
2019-01-15T13:56:30.748Z,6.01
2019-01-15T13:59:36.284Z,6.03
2019-01-15T14:02:27.580Z,6.02
2019-01-15T14:05:23.806Z,6.04
2019-01-15T14:08:23.076Z,6.08
2019-01-15T14:11:06.210Z,6.12
2019-01-15T14:13:54.904Z,6.17
2019-01-15T14:16:44.245Z,6.20
2019-01-15T14:19:32.048Z,6.24
2019-01-15T14:22:21.423Z,6.27
2019-01-15T14:25:12.736Z,6.30
2019-01-15T14:28:12.322Z,6.35
2019-01-15T14:31:06.527Z,6.39
2019-01-15T14:34:02.721Z,6.43
2019-01-15T14:36:52.946Z,6.47
2019-01-15T14:39:41.533Z,6.51
2019-01-15T14:42:40.966Z,6.52
2019-01-15T14:45:30.439Z,6.55
2019-01-15T14:48:21.621Z,6.58
2019-01-15T14:51:09.132Z,6.60
2019-01-15T14:53:56.206Z,6.63
2019-01-15T14:56:45.168Z,6.65
2019-01-15T14:59:34.066Z,6.68
2019-01-15T15:02:23.239Z,6.69
2019-01-15T15:05:01.053Z,6.73
2019-01-15T15:07:52.278Z,6.77
2019-01-15T15:10:52.255Z,6.78
2019-01-15T15:13:37.041Z,6.80
2019-01-15T15:16:27.196Z,6.82
2019-01-15T15:19:09.618Z,6.81
2019-01-15T15:21:58.563Z,6.85
2019-01-15T15:25:08.252Z,6.86
2019-01-15T15:27:59.459Z,6.86
2019-01-15T15:30:56.632Z,6.88
2019-01-15T15:33:46.859Z,6.90
2019-01-15T15:36:40.136Z,6.91
2019-01-15T15:39:23.982Z,6.91
2019-01-15T15:42:20.082Z,6.92
2019-01-15T15:45:07.084Z,6.92
2019-01-15T15:47:58.972Z,6.92
2019-01-15T15:50:59.087Z,6.94
2019-01-15T15:53:48.184Z,6.94
2019-01-15T15:56:37.389Z,6.95
2019-01-15T15:59:26.266Z,6.95
2019-01-15T16:02:24.087Z,6.97
2019-01-15T16:05:18.497Z,6.98
2019-01-15T16:08:11.722Z,6.99
2019-01-15T16:11:12.597Z,6.99
2019-01-15T16:13:58.274Z,6.99
2019-01-15T16:16:47.997Z,6.99
2019-01-15T16:19:35.928Z,6.99
2019-01-15T16:22:24.846Z,7.00
2019-01-15T16:25:27.364Z,7.02
2019-01-15T16:28:17.552Z,7.01
2019-01-15T16:31:10.937Z,7.00
2019-01-15T16:33:57.395Z,7.01
2019-01-15T16:36:46.245Z,7.00
2019-01-15T16:39:36.383Z,7.00
2019-01-15T16:42:35.282Z,7.02
2019-01-15T16:45:26.037Z,7.00
2019-01-15T16:48:05.898Z,6.98
2019-01-15T16:50:45.550Z,6.94
2019-01-15T16:53:42.013Z,6.94
2019-01-15T16:56:44.394Z,6.94
2019-01-15T16:59:46.886Z,6.91
2019-01-15T17:02:36.004Z,6.86
2019-01-15T17:05:29.116Z,6.83
2019-01-15T17:08:12.906Z,6.83
2019-01-15T17:11:00.681Z,6.80
2019-01-15T17:14:03.078Z,6.79
2019-01-15T17:16:51.760Z,6.76
2019-01-15T17:19:39.584Z,6.78
2019-01-15T17:22:37.701Z,6.78
2019-01-15T17:25:26.872Z,6.80
2019-01-15T17:28:08.888Z,6.83
2019-01-15T17:30:58.122Z,6.85
2019-01-15T17:33:47.295Z,6.85
2019-01-15T17:36:49.617Z,6.88
2019-01-15T17:39:42.822Z,6.91
2019-01-15T17:42:51.399Z,6.93
2019-01-15T17:45:40.589Z,6.96
2019-01-15T17:48:32.093Z,6.99
2019-01-15T17:51:37.450Z,7.01
2019-01-15T17:54:27.748Z,7.02
2019-01-15T17:57:31.225Z,7.03
2019-01-15T18:00:40.015Z,7.04
2019-01-15T18:03:30.354Z,7.05
2019-01-15T18:06:23.404Z,7.06
2019-01-15T18:09:13.679Z,7.08
2019-01-15T18:12:02.834Z,7.09
2019-01-15T18:14:59.382Z,7.08
2019-01-15T18:17:55.407Z,7.08
2019-01-15T18:20:38.718Z,7.09
2019-01-15T18:23:25.183Z,7.07
2019-01-15T18:26:21.754Z,7.08
2019-01-15T18:29:11.004Z,7.09
2019-01-15T18:32:00.184Z,7.10
2019-01-15T18:34:59.267Z,7.11
2019-01-15T18:38:00.747Z,7.13
2019-01-15T18:41:09.224Z,7.13
2019-01-15T18:44:08.800Z,7.11
2019-01-15T18:46:57.620Z,7.08
2019-01-15T18:49:47.763Z,7.07
2019-01-15T18:52:56.420Z,7.03
2019-01-15T18:55:40.373Z,7.03
2019-01-15T18:58:29.412Z,7.02
2019-01-15T19:01:37.879Z,7.01
2019-01-15T19:04:30.734Z,7.00
2019-01-15T19:07:23.720Z,7.00
2019-01-15T19:10:20.007Z,7.01
2019-01-15T19:13:16.206Z,6.99
2019-01-15T19:16:05.548Z,6.99
2019-01-15T19:18:54.893Z,6.98
2019-01-15T19:22:03.209Z,6.98
2019-01-15T19:25:11.662Z,6.98
2019-01-15T19:28:01.477Z,6.98
2019-01-15T19:30:52.846Z,6.99
2019-01-15T19:33:42.040Z,7.00
2019-01-15T19:36:32.243Z,7.02
2019-01-15T19:39:24.337Z,7.03
2019-01-15T19:42:32.978Z,7.02
2019-01-15T19:45:32.878Z,7.03
2019-01-15T19:48:23.269Z,7.02
2019-01-15T19:51:07.061Z,7.02
2019-01-15T19:54:00.218Z,7.02
2019-01-15T19:56:52.454Z,7.05
2019-01-15T19:59:59.626Z,7.05
2019-01-15T20:03:03.693Z,7.04
2019-01-15T20:06:00.089Z,7.05
2019-01-15T20:08:49.519Z,7.06
2019-01-15T20:11:47.511Z,7.06
2019-01-15T20:14:50.559Z,7.07
2019-01-15T20:17:57.275Z,7.08
2019-01-15T20:20:52.015Z,7.10
2019-01-15T20:23:34.833Z,7.12
2019-01-15T20:26:43.429Z,7.14
2019-01-15T20:29:42.641Z,7.15
2019-01-15T20:32:35.897Z,7.18
2019-01-15T20:35:45.136Z,7.20
2019-01-15T20:38:35.272Z,7.21
2019-01-15T20:41:34.771Z,7.22
2019-01-15T20:44:15.242Z,7.22
2019-01-15T20:47:04.211Z,7.23
2019-01-15T20:49:53.302Z,7.24
2019-01-15T20:52:42.150Z,7.25
2019-01-15T20:55:24.252Z,7.26
2019-01-15T20:58:13.835Z,7.28
2019-01-15T21:01:09.253Z,7.30
2019-01-15T21:04:15.017Z,7.30
2019-01-15T21:06:59.848Z,7.33
2019-01-15T21:09:56.385Z,7.32
2019-01-15T21:12:49.480Z,7.31
2019-01-15T21:15:37.192Z,7.32
2019-01-15T21:18:26.340Z,7.34
2019-01-15T21:21:28.947Z,7.34
2019-01-15T21:24:34.262Z,7.35
2019-01-15T21:27:14.681Z,7.34
2019-01-15T21:29:54.211Z,7.33
2019-01-15T21:32:44.452Z,7.33
2019-01-15T21:35:38.007Z,7.35
2019-01-15T21:38:28.186Z,7.35
2019-01-15T21:41:15.303Z,7.35
2019-01-15T21:44:23.589Z,7.36
2019-01-15T21:47:10.341Z,7.33
2019-01-15T21:49:59.365Z,7.32
2019-01-15T21:52:47.627Z,7.34
2019-01-15T21:55:39.942Z,7.34
2019-01-15T21:58:36.331Z,7.35
2019-01-15T22:01:32.867Z,7.33
2019-01-15T22:04:31.898Z,7.34
2019-01-15T22:07:20.635Z,7.32
2019-01-15T22:10:20.288Z,7.31
2019-01-15T22:13:06.916Z,7.31
2019-01-15T22:16:02.739Z,7.30
2019-01-15T22:19:14.512Z,7.29
2019-01-15T22:22:46.531Z,7.28
2019-01-15T22:26:10.646Z,7.27
2019-01-15T22:29:10.268Z,7.25
2019-01-15T22:32:22.150Z,7.20
2019-01-15T22:35:20.962Z,7.21
2019-01-15T22:38:55.245Z,7.19
2019-01-15T22:42:20.576Z,7.18
2019-01-15T22:45:30.717Z,7.19
2019-01-15T22:48:27.752Z,7.15
2019-01-15T22:54:52.789Z,7.10
2019-01-15T22:57:53.766Z,7.08
2019-01-15T23:00:58.521Z,7.08
2019-01-15T23:03:56.898Z,7.07
2019-01-15T23:06:48.611Z,7.07
2019-01-15T23:09:46.260Z,7.05
2019-01-15T23:12:42.660Z,7.04
2019-01-15T23:15:36.687Z,7.04
2019-01-15T23:18:37.640Z,7.05
2019-01-15T23:22:04.751Z,7.05
2019-01-15T23:25:02.852Z,7.09
2019-01-15T23:28:19.687Z,7.10
2019-01-15T23:31:22.889Z,7.13
2019-01-15T23:34:30.965Z,7.17
2019-01-15T23:37:25.465Z,7.21
2019-01-15T23:40:43.158Z,7.25
2019-01-15T23:43:38.671Z,7.27
2019-01-15T23:46:38.042Z,7.31
2019-01-15T23:49:40.397Z,7.36
2019-01-15T23:52:45.230Z,7.37
2019-01-15T23:55:46.907Z,7.42
2019-01-15T23:58:48.206Z,7.44
